sensor_id;sensor_type;location;lat;lon;timestamp;noise_LAeq;noise_LA_min;noise_LA_max;noise_LA01;noise_LA95
46584;Laerm;32309;48.858;8.252;2023-03-11T00:11:11;46.84;40.53;65.78;;
46584;Laerm;32309;48.858;8.252;2023-03-11T00:13:32;46.61;42.29;68.44;;
46584;Laerm;32309;48.858;8.252;2023-03-11T00:16:27;53.69;42.16;84.03;;
46584;Laerm;32309;48.858;8.252;2023-03-11T00:32:22;47.69;40.71;75.07;;
46584;Laerm;32309;48.858;8.252;2023-03-11T00:45:19;48.51;41.68;71.16;;
46584;Laerm;32309;48.858;8.252;2023-03-11T00:56:42;45.78;40.33;65.07;;
46584;Laerm;32309;48.858;8.252;2023-03-11T01:20:54;47.27;40.71;68.58;;
46584;Laerm;32309;48.858;8.252;2023-03-11T01:22:54;52.85;42.98;78.40;;
46584;Laerm;32309;48.858;8.252;2023-03-11T01:25:00;49.48;42.47;71.62;;
46584;Laerm;32309;48.858;8.252;2023-03-11T01:41:24;51.23;42.82;75.98;;
46584;Laerm;32309;48.858;8.252;2023-03-11T01:43:51;51.89;41.30;76.67;;
46584;Laerm;32309;48.858;8.252;2023-03-11T01:46:22;48.32;43.14;61.25;;
46584;Laerm;32309;48.858;8.252;2023-03-11T01:48:23;47.08;42.65;62.88;;
46584;Laerm;32309;48.858;8.252;2023-03-11T01:50:25;48.62;43.04;60.63;;
46584;Laerm;32309;48.858;8.252;2023-03-11T01:52:49;46.35;41.75;64.78;;
46584;Laerm;32309;48.858;8.252;2023-03-11T01:54:59;45.82;42.76;54.17;;
46584;Laerm;32309;48.858;8.252;2023-03-11T01:59:07;46.02;42.82;53.43;;
46584;Laerm;32309;48.858;8.252;2023-03-11T02:01:24;45.86;42.93;56.28;;
46584;Laerm;32309;48.858;8.252;2023-03-11T02:03:29;45.31;42.03;52.15;;
46584;Laerm;32309;48.858;8.252;2023-03-11T02:05:30;45.45;42.19;56.11;;
46584;Laerm;32309;48.858;8.252;2023-03-11T02:07:32;44.48;40.62;53.03;;
46584;Laerm;32309;48.858;8.252;2023-03-11T02:11:33;43.76;40.89;48.64;;
46584;Laerm;32309;48.858;8.252;2023-03-11T02:13:42;45.75;40.98;61.10;;
46584;Laerm;32309;48.858;8.252;2023-03-11T02:15:54;46.04;41.61;53.34;;
46584;Laerm;32309;48.858;8.252;2023-03-11T02:20:41;44.75;41.11;53.71;;
46584;Laerm;32309;48.858;8.252;2023-03-11T02:22:47;45.18;42.09;50.08;;
46584;Laerm;32309;48.858;8.252;2023-03-11T02:25:12;43.89;40.71;49.16;;
46584;Laerm;32309;48.858;8.252;2023-03-11T05:12:55;44.03;40.98;50.60;;
46584;Laerm;32309;48.858;8.252;2023-03-11T05:15:28;45.59;41.82;58.54;;
46584;Laerm;32309;48.858;8.252;2023-03-11T05:36:55;43.19;40.53;46.52;;
46584;Laerm;32309;48.858;8.252;2023-03-11T05:39:09;43.24;40.71;49.46;;
46584;Laerm;32309;48.858;8.252;2023-03-11T05:44:06;43.49;40.23;60.79;;
46584;Laerm;32309;48.858;8.252;2023-03-11T06:00:14;44.92;40.71;56.81;;
46584;Laerm;32309;48.858;8.252;2023-03-11T06:03:07;43.87;40.71;52.95;;
46584;Laerm;32309;48.858;8.252;2023-03-11T06:08:57;47.63;40.71;73.43;;
46584;Laerm;32309;48.858;8.252;2023-03-11T06:11:12;43.57;41.06;49.21;;
46584;Laerm;32309;48.858;8.252;2023-03-11T06:13:14;43.57;41.06;49.21;;
46584;Laerm;32309;48.858;8.252;2023-03-11T06:15:15;43.12;40.43;46.91;;
46584;Laerm;32309;48.858;8.252;2023-03-11T06:22:24;43.59;40.98;48.55;;
46584;Laerm;32309;48.858;8.252;2023-03-11T06:34:44;43.42;40.89;49.96;;
46584;Laerm;32309;48.858;8.252;2023-03-11T06:36:54;48.16;40.33;68.42;;
46584;Laerm;32309;48.858;8.252;2023-03-11T06:38:58;43.90;40.43;64.80;;
46584;Laerm;32309;48.858;8.252;2023-03-11T06:41:16;44.29;41.22;56.25;;
46584;Laerm;32309;48.858;8.252;2023-03-11T06:43:20;44.64;41.06;60.56;;
46584;Laerm;32309;48.858;8.252;2023-03-11T06:45:23;45.99;41.14;60.56;;
46584;Laerm;32309;48.858;8.252;2023-03-11T06:57:07;45.64;40.53;58.93;;
46584;Laerm;32309;48.858;8.252;2023-03-11T07:01:24;44.90;41.22;56.55;;
46584;Laerm;32309;48.858;8.252;2023-03-11T07:05:46;44.44;41.22;66.34;;
46584;Laerm;32309;48.858;8.252;2023-03-11T07:08:01;45.82;41.89;56.76;;
46584;Laerm;32309;48.858;8.252;2023-03-11T07:10:05;44.64;41.53;54.37;;
46584;Laerm;32309;48.858;8.252;2023-03-11T07:12:08;46.10;40.98;59.35;;
46584;Laerm;32309;48.858;8.252;2023-03-11T07:14:11;46.04;40.80;59.73;;
46584;Laerm;32309;48.858;8.252;2023-03-11T07:16:17;49.24;41.06;65.82;;
46584;Laerm;32309;48.858;8.252;2023-03-11T07:18:29;50.49;40.62;65.94;;
46584;Laerm;32309;48.858;8.252;2023-03-11T07:23:44;43.31;40.62;49.84;;
46584;Laerm;32309;48.858;8.252;2023-03-11T07:26:05;46.99;40.23;72.28;;
46584;Laerm;32309;48.858;8.252;2023-03-11T07:28:17;44.38;40.33;57.70;;
46584;Laerm;32309;48.858;8.252;2023-03-11T07:39:28;51.21;44.90;61.73;;
46584;Laerm;32309;48.858;8.252;2023-03-11T07:41:33;55.37;45.23;77.26;;
46584;Laerm;32309;48.858;8.252;2023-03-11T07:43:34;49.10;41.53;67.00;;
46584;Laerm;32309;48.858;8.252;2023-03-11T07:45:34;50.74;40.71;66.92;;
46584;Laerm;32309;48.858;8.252;2023-03-11T07:56:49;45.91;40.62;60.52;;
46584;Laerm;32309;48.858;8.252;2023-03-11T07:59:03;45.33;40.71;57.97;;
46584;Laerm;32309;48.858;8.252;2023-03-11T08:05:11;51.00;41.22;68.68;;
46584;Laerm;32309;48.858;8.252;2023-03-11T08:07:11;44.03;40.23;60.34;;
46584;Laerm;32309;48.858;8.252;2023-03-11T08:09:12;43.57;40.62;52.57;;
46584;Laerm;32309;48.858;8.252;2023-03-11T08:13:13;44.43;40.98;55.99;;
46584;Laerm;32309;48.858;8.252;2023-03-11T08:15:13;44.43;40.98;55.99;;
46584;Laerm;32309;48.858;8.252;2023-03-11T08:17:13;48.02;41.96;72.55;;
46584;Laerm;32309;48.858;8.252;2023-03-11T08:19:14;46.13;42.16;62.80;;
46584;Laerm;32309;48.858;8.252;2023-03-11T08:21:19;46.17;42.47;55.62;;
46584;Laerm;32309;48.858;8.252;2023-03-11T08:23:20;44.89;42.53;50.60;;
46584;Laerm;32309;48.858;8.252;2023-03-11T08:25:21;46.12;41.30;60.45;;
46584;Laerm;32309;48.858;8.252;2023-03-11T08:27:21;50.35;41.75;65.30;;
46584;Laerm;32309;48.858;8.252;2023-03-11T08:29:22;44.68;41.75;57.53;;
46584;Laerm;32309;48.858;8.252;2023-03-11T08:31:28;45.25;39.58;60.12;;
46584;Laerm;32309;48.858;8.252;2023-03-11T08:33:29;44.00;41.30;52.22;;
46584;Laerm;32309;48.858;8.252;2023-03-11T08:35:30;44.14;40.62;57.08;;
46584;Laerm;32309;48.858;8.252;2023-03-11T08:37:30;43.89;41.46;50.97;;
46584;Laerm;32309;48.858;8.252;2023-03-11T08:39:30;43.44;41.38;50.92;;
46584;Laerm;32309;48.858;8.252;2023-03-11T08:43:31;44.27;41.46;63.39;;
46584;Laerm;32309;48.858;8.252;2023-03-11T08:45:32;51.77;41.14;73.91;;
46584;Laerm;32309;48.858;8.252;2023-03-11T08:47:34;43.84;40.89;52.38;;
46584;Laerm;32309;48.858;8.252;2023-03-11T08:51:37;43.76;40.96;58.92;;
46584;Laerm;32309;48.858;8.252;2023-03-11T08:53:37;47.08;41.82;61.90;;
46584;Laerm;32309;48.858;8.252;2023-03-11T08:55:37;43.31;40.98;47.02;;
46584;Laerm;32309;48.858;8.252;2023-03-11T08:57:38;43.66;41.53;48.03;;
46584;Laerm;32309;48.858;8.252;2023-03-11T08:59:38;43.41;38.95;55.44;;
46584;Laerm;32309;48.858;8.252;2023-03-11T09:01:38;47.03;40.80;64.10;;
46584;Laerm;32309;48.858;8.252;2023-03-11T09:03:39;44.60;40.71;57.02;;
46584;Laerm;32309;48.858;8.252;2023-03-11T09:05:39;45.60;40.89;62.34;;
46584;Laerm;32309;48.858;8.252;2023-03-11T09:14:10;43.54;41.06;48.95;;
46584;Laerm;32309;48.858;8.252;2023-03-11T09:16:19;43.43;40.71;55.78;;
46584;Laerm;32309;48.858;8.252;2023-03-11T09:18:20;44.45;40.43;60.53;;
46584;Laerm;32309;48.858;8.252;2023-03-11T09:20:20;53.41;40.03;73.49;;
46584;Laerm;32309;48.858;8.252;2023-03-11T09:28:43;45.01;41.82;57.80;;
46584;Laerm;32309;48.858;8.252;2023-03-11T09:31:33;45.04;42.22;58.13;;
46584;Laerm;32309;48.858;8.252;2023-03-11T11:27:57;48.64;42.03;66.58;;
46584;Laerm;32309;48.858;8.252;2023-03-11T11:34:33;46.46;41.75;58.14;;
46584;Laerm;32309;48.858;8.252;2023-03-11T11:36:35;47.86;42.41;60.38;;
46584;Laerm;32309;48.858;8.252;2023-03-11T11:38:41;44.24;40.53;54.34;;
46584;Laerm;32309;48.858;8.252;2023-03-11T11:40:41;46.35;40.98;64.83;;
46584;Laerm;32309;48.858;8.252;2023-03-11T11:42:53;44.04;41.38;54.87;;
46584;Laerm;32309;48.858;8.252;2023-03-11T11:45:15;53.65;40.71;81.94;;
46584;Laerm;32309;48.858;8.252;2023-03-11T11:47:22;47.71;43.34;69.32;;
46584;Laerm;32309;48.858;8.252;2023-03-11T11:51:32;45.62;41.61;66.48;;
46584;Laerm;32309;48.858;8.252;2023-03-11T11:53:43;51.77;42.29;75.58;;
46584;Laerm;32309;48.858;8.252;2023-03-11T11:55:48;47.75;41.26;62.26;;
46584;Laerm;32309;48.858;8.252;2023-03-11T11:57:50;50.03;41.46;66.45;;
46584;Laerm;32309;48.858;8.252;2023-03-11T11:59:51;44.21;41.53;52.55;;
46584;Laerm;32309;48.858;8.252;2023-03-11T12:07:17;44.64;41.22;57.80;;
46584;Laerm;32309;48.858;8.252;2023-03-11T12:09:35;44.58;40.80;55.85;;
46584;Laerm;32309;48.858;8.252;2023-03-11T12:11:45;44.92;41.61;54.48;;
46584;Laerm;32309;48.858;8.252;2023-03-11T12:16:12;48.55;43.68;64.15;;
46584;Laerm;32309;48.858;8.252;2023-03-11T12:18:24;46.46;42.93;62.15;;
46584;Laerm;32309;48.858;8.252;2023-03-11T12:20:35;46.70;41.96;56.78;;
46584;Laerm;32309;48.858;8.252;2023-03-11T12:22:56;44.63;42.13;51.88;;
46584;Laerm;32309;48.858;8.252;2023-03-11T12:27:25;45.07;42.35;56.88;;
46584;Laerm;32309;48.858;8.252;2023-03-11T12:29:33;49.03;44.15;55.67;;
46584;Laerm;32309;48.858;8.252;2023-03-11T12:31:37;49.82;43.04;64.25;;
46584;Laerm;32309;48.858;8.252;2023-03-11T12:35:49;47.55;42.22;62.00;;
46584;Laerm;32309;48.858;8.252;2023-03-11T12:38:20;44.86;41.75;59.42;;
46584;Laerm;32309;48.858;8.252;2023-03-11T12:42:49;44.65;42.47;51.93;;
46584;Laerm;32309;48.858;8.252;2023-03-11T12:44:49;46.52;41.89;63.11;;
46584;Laerm;32309;48.858;8.252;2023-03-11T12:49:24;48.41;44.27;62.24;;
46584;Laerm;32309;48.858;8.252;2023-03-11T12:55:57;47.04;42.71;57.22;;
46584;Laerm;32309;48.858;8.252;2023-03-11T12:58:31;47.82;42.59;62.29;;
46584;Laerm;32309;48.858;8.252;2023-03-11T13:13:45;50.66;42.65;72.83;;
46584;Laerm;32309;48.858;8.252;2023-03-11T13:15:46;47.93;41.96;65.98;;
46584;Laerm;32309;48.858;8.252;2023-03-11T13:18:02;50.72;43.04;77.25;;
46584;Laerm;32309;48.858;8.252;2023-03-11T13:27:42;48.78;43.39;57.73;;
46584;Laerm;32309;48.858;8.252;2023-03-11T13:36:50;49.11;41.68;65.17;;
46584;Laerm;32309;48.858;8.252;2023-03-11T13:41:21;44.01;40.80;57.62;;
46584;Laerm;32309;48.858;8.252;2023-03-11T13:43:24;46.92;40.98;68.38;;
46584;Laerm;32309;48.858;8.252;2023-03-11T13:47:35;44.01;41.61;51.33;;
46584;Laerm;32309;48.858;8.252;2023-03-11T13:49:42;46.46;42.41;56.98;;
46584;Laerm;32309;48.858;8.252;2023-03-11T13:51:45;44.99;40.53;50.86;;
46584;Laerm;32309;48.858;8.252;2023-03-11T13:56:57;45.40;41.53;57.28;;
46584;Laerm;32309;48.858;8.252;2023-03-11T13:59:27;48.65;40.43;75.95;;
46584;Laerm;32309;48.858;8.252;2023-03-11T14:01:28;46.09;41.22;57.13;;
46584;Laerm;32309;48.858;8.252;2023-03-11T14:05:35;47.46;41.82;59.17;;
46584;Laerm;32309;48.858;8.252;2023-03-11T14:08:17;46.89;40.80;64.21;;
46584;Laerm;32309;48.858;8.252;2023-03-11T14:10:28;44.49;42.35;51.67;;
46584;Laerm;32309;48.858;8.252;2023-03-11T14:12:30;48.71;42.76;64.20;;
46584;Laerm;32309;48.858;8.252;2023-03-11T14:16:37;45.58;41.75;57.84;;
46584;Laerm;32309;48.858;8.252;2023-03-11T14:18:44;45.36;40.53;57.19;;
46584;Laerm;32309;48.858;8.252;2023-03-11T14:20:46;43.35;41.14;48.49;;
46584;Laerm;32309;48.858;8.252;2023-03-11T14:22:50;44.18;41.53;61.13;;
46584;Laerm;32309;48.858;8.252;2023-03-11T14:26:52;44.10;40.79;56.25;;
46584;Laerm;32309;48.858;8.252;2023-03-11T14:30:59;49.41;40.80;76.62;;
46584;Laerm;32309;48.858;8.252;2023-03-11T14:35:01;46.50;39.92;64.39;;
46584;Laerm;32309;48.858;8.252;2023-03-11T14:37:01;44.18;40.89;56.10;;
46584;Laerm;32309;48.858;8.252;2023-03-11T14:39:03;43.71;40.23;58.36;;
46584;Laerm;32309;48.858;8.252;2023-03-11T14:41:09;43.68;40.53;52.13;;
46584;Laerm;32309;48.858;8.252;2023-03-11T14:43:11;43.36;40.71;52.86;;
46584;Laerm;32309;48.858;8.252;2023-03-11T14:45:16;43.81;41.06;56.55;;
46584;Laerm;32309;48.858;8.252;2023-03-11T14:50:16;45.86;42.76;52.92;;
46584;Laerm;32309;48.858;8.252;2023-03-11T14:54:40;45.13;41.82;62.04;;
46584;Laerm;32309;48.858;8.252;2023-03-11T14:56:46;46.05;41.96;56.39;;
46584;Laerm;32309;48.858;8.252;2023-03-11T14:59:14;47.74;43.19;62.55;;
46584;Laerm;32309;48.858;8.252;2023-03-11T15:01:26;48.48;43.34;70.72;;
46584;Laerm;32309;48.858;8.252;2023-03-11T15:06:21;46.73;42.88;55.13;;
46584;Laerm;32309;48.858;8.252;2023-03-11T15:08:59;46.82;41.61;61.09;;
46584;Laerm;32309;48.858;8.252;2023-03-11T15:13:17;45.89;42.82;51.50;;
46584;Laerm;32309;48.858;8.252;2023-03-11T15:15:46;45.33;41.46;58.28;;
46584;Laerm;32309;48.858;8.252;2023-03-11T15:18:20;46.40;42.82;59.58;;
46584;Laerm;32309;48.858;8.252;2023-03-11T15:20:29;47.48;42.53;61.21;;
46584;Laerm;32309;48.858;8.252;2023-03-11T15:22:37;46.82;42.35;56.88;;
46584;Laerm;32309;48.858;8.252;2023-03-11T15:24:59;47.33;42.47;57.32;;
46584;Laerm;32309;48.858;8.252;2023-03-11T15:29:09;44.54;41.38;58.69;;
46584;Laerm;32309;48.858;8.252;2023-03-11T15:31:23;47.25;41.14;59.66;;
46584;Laerm;32309;48.858;8.252;2023-03-11T15:33:33;44.89;41.22;58.64;;
46584;Laerm;32309;48.858;8.252;2023-03-11T15:35:47;45.92;40.80;60.24;;
46584;Laerm;32309;48.858;8.252;2023-03-11T15:37:50;44.75;40.13;56.61;;
46584;Laerm;32309;48.858;8.252;2023-03-11T15:42:24;48.75;40.98;62.35;;
46584;Laerm;32309;48.858;8.252;2023-03-11T15:44:30;44.83;40.80;56.59;;
46584;Laerm;32309;48.858;8.252;2023-03-11T15:46:33;46.61;42.22;62.15;;
46584;Laerm;32309;48.858;8.252;2023-03-11T15:48:33;45.50;41.06;58.47;;
46584;Laerm;32309;48.858;8.252;2023-03-11T15:50:33;46.61;41.53;62.72;;
46584;Laerm;32309;48.858;8.252;2023-03-11T15:56:36;42.80;39.81;49.77;;
46584;Laerm;32309;48.858;8.252;2023-03-11T15:58:36;46.51;39.89;61.70;;
46584;Laerm;32309;48.858;8.252;2023-03-11T16:04:39;43.24;39.46;57.14;;
46584;Laerm;32309;48.858;8.252;2023-03-11T16:06:41;43.37;38.67;56.95;;
46584;Laerm;32309;48.858;8.252;2023-03-11T16:10:43;43.16;39.81;56.63;;
46584;Laerm;32309;48.858;8.252;2023-03-11T16:12:44;52.31;39.21;73.86;;
46584;Laerm;32309;48.858;8.252;2023-03-11T16:14:46;49.91;39.70;74.42;;
46584;Laerm;32309;48.858;8.252;2023-03-11T16:16:46;51.84;39.46;77.22;;
46584;Laerm;32309;48.858;8.252;2023-03-11T16:18:47;43.40;39.70;51.82;;
46584;Laerm;32309;48.858;8.252;2023-03-11T16:20:50;59.36;39.34;89.73;;
46584;Laerm;32309;48.858;8.252;2023-03-11T16:24:52;43.21;40.03;47.46;;
46584;Laerm;32309;48.858;8.252;2023-03-11T16:26:53;46.41;40.03;62.28;;
46584;Laerm;32309;48.858;8.252;2023-03-11T16:28:53;43.55;39.34;52.11;;
46584;Laerm;32309;48.858;8.252;2023-03-11T16:30:53;44.44;40.62;54.11;;
46584;Laerm;32309;48.858;8.252;2023-03-11T16:32:54;43.99;39.70;58.54;;
46584;Laerm;32309;48.858;8.252;2023-03-11T16:36:54;43.54;40.03;54.18;;
46584;Laerm;32309;48.858;8.252;2023-03-11T16:41:00;45.60;40.03;67.77;;
46584;Laerm;32309;48.858;8.252;2023-03-11T16:43:06;44.85;40.98;63.54;;
46584;Laerm;32309;48.858;8.252;2023-03-11T16:47:07;44.72;41.53;52.36;;
46584;Laerm;32309;48.858;8.252;2023-03-11T16:49:07;43.84;40.53;54.22;;
46584;Laerm;32309;48.858;8.252;2023-03-11T16:51:07;47.39;40.43;61.31;;
46584;Laerm;32309;48.858;8.252;2023-03-11T16:53:08;43.38;39.70;52.02;;
46584;Laerm;32309;48.858;8.252;2023-03-11T16:55:08;43.90;40.53;52.64;;
46584;Laerm;32309;48.858;8.252;2023-03-11T16:57:09;46.73;41.46;59.89;;
46584;Laerm;32309;48.858;8.252;2023-03-11T16:59:09;44.32;40.13;57.67;;
46584;Laerm;32309;48.858;8.252;2023-03-11T17:01:11;44.03;40.33;52.28;;
46584;Laerm;32309;48.858;8.252;2023-03-11T17:03:13;45.86;40.03;62.55;;
46584;Laerm;32309;48.858;8.252;2023-03-11T17:05:16;43.15;39.92;51.81;;
46584;Laerm;32309;48.858;8.252;2023-03-11T17:07:16;43.59;39.81;51.59;;
46584;Laerm;32309;48.858;8.252;2023-03-11T17:09:16;46.98;40.23;61.10;;
46584;Laerm;32309;48.858;8.252;2023-03-11T17:11:21;46.83;40.13;62.84;;
46584;Laerm;32309;48.858;8.252;2023-03-11T17:13:27;44.84;39.46;61.01;;
46584;Laerm;32309;48.858;8.252;2023-03-11T17:15:31;42.77;38.52;54.04;;
46584;Laerm;32309;48.858;8.252;2023-03-11T17:17:34;44.25;40.13;54.53;;
46584;Laerm;32309;48.858;8.252;2023-03-11T17:19:35;42.95;39.92;48.49;;
46584;Laerm;32309;48.858;8.252;2023-03-11T17:21:35;43.40;40.33;48.20;;
46584;Laerm;32309;48.858;8.252;2023-03-11T17:23:39;43.98;40.33;52.08;;
46584;Laerm;32309;48.858;8.252;2023-03-11T17:25:42;44.15;40.89;58.47;;
46584;Laerm;32309;48.858;8.252;2023-03-11T17:27:43;44.00;40.53;54.46;;
46584;Laerm;32309;48.858;8.252;2023-03-11T17:29:43;44.68;39.92;56.70;;
46584;Laerm;32309;48.858;8.252;2023-03-11T17:31:43;48.40;41.06;75.55;;
46584;Laerm;32309;48.858;8.252;2023-03-11T17:33:44;44.50;41.53;53.01;;
46584;Laerm;32309;48.858;8.252;2023-03-11T17:37:46;45.99;41.61;56.24;;
46584;Laerm;32309;48.858;8.252;2023-03-11T17:39:46;44.72;41.82;52.72;;
46584;Laerm;32309;48.858;8.252;2023-03-11T17:41:46;47.17;42.22;65.10;;
46584;Laerm;32309;48.858;8.252;2023-03-11T17:43:47;48.30;42.76;71.39;;
46584;Laerm;32309;48.858;8.252;2023-03-11T17:45:48;46.63;42.95;54.45;;
46584;Laerm;32309;48.858;8.252;2023-03-11T17:47:48;50.77;44.03;60.08;;
46584;Laerm;32309;48.858;8.252;2023-03-11T17:51:49;50.99;44.11;75.78;;
46584;Laerm;32309;48.858;8.252;2023-03-11T17:53:51;47.32;43.64;52.04;;
46584;Laerm;32309;48.858;8.252;2023-03-11T17:55:51;47.90;43.86;54.50;;
46584;Laerm;32309;48.858;8.252;2023-03-11T17:57:53;47.91;44.54;53.08;;
46584;Laerm;32309;48.858;8.252;2023-03-11T17:59:53;47.46;44.43;51.90;;
46584;Laerm;32309;48.858;8.252;2023-03-11T18:01:53;47.34;43.58;55.00;;
46584;Laerm;32309;48.858;8.252;2023-03-11T18:03:54;49.11;44.19;57.80;;
46584;Laerm;32309;48.858;8.252;2023-03-11T18:07:56;51.39;46.69;58.61;;
46584;Laerm;32309;48.858;8.252;2023-03-11T18:09:57;54.59;47.67;62.11;;
46584;Laerm;32309;48.858;8.252;2023-03-11T18:11:57;52.47;47.68;60.41;;
46584;Laerm;32309;48.858;8.252;2023-03-11T18:13:58;52.47;47.12;58.60;;
46584;Laerm;32309;48.858;8.252;2023-03-11T18:16:00;51.88;46.91;66.35;;
46584;Laerm;32309;48.858;8.252;2023-03-11T18:20:02;53.47;47.04;69.99;;
46584;Laerm;32309;48.858;8.252;2023-03-11T18:22:02;57.29;47.26;78.73;;
46584;Laerm;32309;48.858;8.252;2023-03-11T18:24:03;51.65;46.87;59.59;;
46584;Laerm;32309;48.858;8.252;2023-03-11T18:26:06;50.38;44.62;62.59;;
46584;Laerm;32309;48.858;8.252;2023-03-11T18:28:07;51.95;46.25;63.57;;
46584;Laerm;32309;48.858;8.252;2023-03-11T18:30:08;50.63;45.63;57.10;;
46584;Laerm;32309;48.858;8.252;2023-03-11T18:32:10;56.51;45.51;78.68;;
46584;Laerm;32309;48.858;8.252;2023-03-11T18:34:10;52.00;47.02;61.28;;
46584;Laerm;32309;48.858;8.252;2023-03-11T18:36:17;51.62;45.72;63.22;;
46584;Laerm;32309;48.858;8.252;2023-03-11T18:38:18;60.39;46.87;71.46;;
46584;Laerm;32309;48.858;8.252;2023-03-11T18:40:18;52.99;47.06;65.60;;
46584;Laerm;32309;48.858;8.252;2023-03-11T18:42:19;51.99;47.00;68.67;;
46584;Laerm;32309;48.858;8.252;2023-03-11T18:46:20;50.15;44.54;55.23;;
46584;Laerm;32309;48.858;8.252;2023-03-11T18:48:20;50.59;44.54;61.39;;
46584;Laerm;32309;48.858;8.252;2023-03-11T18:50:21;51.25;45.45;61.39;;
46584;Laerm;32309;48.858;8.252;2023-03-11T18:52:21;51.42;45.80;57.28;;
46584;Laerm;32309;48.858;8.252;2023-03-11T18:54:21;49.59;45.39;57.11;;
46584;Laerm;32309;48.858;8.252;2023-03-11T18:56:22;51.05;45.36;57.31;;
46584;Laerm;32309;48.858;8.252;2023-03-11T18:58:22;49.92;46.03;56.24;;
46584;Laerm;32309;48.858;8.252;2023-03-11T19:02:23;50.65;46.02;59.86;;
46584;Laerm;32309;48.858;8.252;2023-03-11T19:04:23;49.28;44.73;54.38;;
46584;Laerm;32309;48.858;8.252;2023-03-11T19:06:25;49.90;45.01;56.37;;
46584;Laerm;32309;48.858;8.252;2023-03-11T19:08:26;49.90;45.01;56.37;;
46584;Laerm;32309;48.858;8.252;2023-03-11T19:10:27;49.89;45.45;55.58;;
46584;Laerm;32309;48.858;8.252;2023-03-11T19:12:27;49.67;45.01;57.71;;
46584;Laerm;32309;48.858;8.252;2023-03-11T19:14:28;49.67;45.28;56.22;;
46584;Laerm;32309;48.858;8.252;2023-03-11T19:16:28;51.21;46.33;68.96;;
46584;Laerm;32309;48.858;8.252;2023-03-11T19:18:29;49.31;44.58;54.12;;
46584;Laerm;32309;48.858;8.252;2023-03-11T19:20:29;49.86;44.80;54.83;;
46584;Laerm;32309;48.858;8.252;2023-03-11T19:22:30;52.40;45.86;64.71;;
46584;Laerm;32309;48.858;8.252;2023-03-11T19:24:30;60.03;45.27;77.28;;
46584;Laerm;32309;48.858;8.252;2023-03-11T19:26:30;49.28;44.69;56.63;;
46584;Laerm;32309;48.858;8.252;2023-03-11T19:28:32;50.14;45.27;55.83;;
46584;Laerm;32309;48.858;8.252;2023-03-11T19:30:32;49.98;45.36;56.87;;
46584;Laerm;32309;48.858;8.252;2023-03-11T19:32:33;50.31;45.23;56.27;;
46584;Laerm;32309;48.858;8.252;2023-03-11T19:34:33;49.95;44.54;56.50;;
46584;Laerm;32309;48.858;8.252;2023-03-11T19:36:33;50.81;44.87;64.26;;
46584;Laerm;32309;48.858;8.252;2023-03-11T19:38:34;47.86;44.62;56.28;;
46584;Laerm;32309;48.858;8.252;2023-03-11T19:40:34;48.33;43.99;53.29;;
46584;Laerm;32309;48.858;8.252;2023-03-11T19:42:35;48.63;43.86;55.29;;
46584;Laerm;32309;48.858;8.252;2023-03-11T19:46:35;49.60;43.77;56.37;;
46584;Laerm;32309;48.858;8.252;2023-03-11T19:48:36;47.90;44.54;53.87;;
46584;Laerm;32309;48.858;8.252;2023-03-11T19:50:38;48.94;44.54;54.33;;
46584;Laerm;32309;48.858;8.252;2023-03-11T19:52:38;51.22;44.27;62.46;;
46584;Laerm;32309;48.858;8.252;2023-03-11T19:54:41;48.85;44.11;56.85;;
46584;Laerm;32309;48.858;8.252;2023-03-11T19:56:45;48.70;44.54;54.65;;
46584;Laerm;32309;48.858;8.252;2023-03-11T20:00:46;49.13;44.47;54.90;;
46584;Laerm;32309;48.858;8.252;2023-03-11T20:02:49;58.56;44.43;76.57;;
46584;Laerm;32309;48.858;8.252;2023-03-11T20:04:49;48.67;44.47;55.37;;
46584;Laerm;32309;48.858;8.252;2023-03-11T20:06:50;48.76;44.73;59.43;;
46584;Laerm;32309;48.858;8.252;2023-03-11T20:08:50;48.87;43.81;55.42;;
46584;Laerm;32309;48.858;8.252;2023-03-11T20:12:51;47.74;43.09;55.82;;
46584;Laerm;32309;48.858;8.252;2023-03-11T20:14:51;49.51;44.73;60.13;;
46584;Laerm;32309;48.858;8.252;2023-03-11T20:16:52;48.01;43.99;53.67;;
46584;Laerm;32309;48.858;8.252;2023-03-11T20:18:52;50.27;44.90;59.62;;
46584;Laerm;32309;48.858;8.252;2023-03-11T20:20:53;48.29;44.07;54.19;;
46584;Laerm;32309;48.858;8.252;2023-03-11T20:22:54;48.66;44.11;55.99;;
46584;Laerm;32309;48.858;8.252;2023-03-11T20:24:54;49.92;45.39;56.86;;
46584;Laerm;32309;48.858;8.252;2023-03-11T20:26:55;48.58;43.99;55.12;;
46584;Laerm;32309;48.858;8.252;2023-03-11T20:30:56;50.68;45.07;64.47;;
46584;Laerm;32309;48.858;8.252;2023-03-11T20:32:56;48.55;44.03;54.71;;
46584;Laerm;32309;48.858;8.252;2023-03-11T20:34:57;47.86;43.64;54.62;;
46584;Laerm;32309;48.858;8.252;2023-03-11T20:36:57;47.48;43.39;53.43;;
46584;Laerm;32309;48.858;8.252;2023-03-11T20:38:58;48.98;44.11;57.33;;
46584;Laerm;32309;48.858;8.252;2023-03-11T20:40:59;48.69;45.14;53.47;;
46584;Laerm;32309;48.858;8.252;2023-03-11T20:43:02;49.15;44.73;55.09;;
46584;Laerm;32309;48.858;8.252;2023-03-11T20:45:14;50.37;44.31;58.50;;
46584;Laerm;32309;48.858;8.252;2023-03-11T20:47:26;50.35;44.62;72.91;;
46584;Laerm;32309;48.858;8.252;2023-03-11T20:49:29;48.25;43.54;55.79;;
46584;Laerm;32309;48.858;8.252;2023-03-11T20:51:30;49.03;43.29;58.66;;
46584;Laerm;32309;48.858;8.252;2023-03-11T20:53:31;49.22;43.72;59.81;;
46584;Laerm;32309;48.858;8.252;2023-03-11T20:55:31;48.77;43.58;54.38;;
46584;Laerm;32309;48.858;8.252;2023-03-11T20:57:32;46.69;43.29;52.66;;
46584;Laerm;32309;48.858;8.252;2023-03-11T20:59:32;47.35;42.93;60.54;;
46584;Laerm;32309;48.858;8.252;2023-03-11T21:01:38;45.82;42.41;50.92;;
46584;Laerm;32309;48.858;8.252;2023-03-11T21:03:52;44.62;42.03;49.04;;
46584;Laerm;32309;48.858;8.252;2023-03-11T21:05:53;45.32;41.82;52.21;;
46584;Laerm;32309;48.858;8.252;2023-03-11T21:07:53;45.09;42.03;50.88;;
46584;Laerm;32309;48.858;8.252;2023-03-11T21:09:54;52.07;42.03;77.69;;
46584;Laerm;32309;48.858;8.252;2023-03-11T21:11:58;46.04;42.59;57.14;;
46584;Laerm;32309;48.858;8.252;2023-03-11T21:14:03;45.06;41.38;51.03;;
46584;Laerm;32309;48.858;8.252;2023-03-11T21:16:07;44.99;41.68;54.07;;
46584;Laerm;32309;48.858;8.252;2023-03-11T21:18:08;44.92;42.03;49.19;;
46584;Laerm;32309;48.858;8.252;2023-03-11T21:20:10;44.05;41.22;53.98;;
46584;Laerm;32309;48.858;8.252;2023-03-11T21:22:11;44.44;41.14;49.50;;
46584;Laerm;32309;48.858;8.252;2023-03-11T21:26:24;45.19;41.61;56.47;;
46584;Laerm;32309;48.858;8.252;2023-03-11T21:30:45;44.59;41.06;54.96;;
46584;Laerm;32309;48.858;8.252;2023-03-11T21:32:45;43.89;41.22;48.45;;
46584;Laerm;32309;48.858;8.252;2023-03-11T21:34:46;42.71;39.70;47.84;;
46584;Laerm;32309;48.858;8.252;2023-03-11T21:36:47;42.95;40.53;45.91;;
46584;Laerm;32309;48.858;8.252;2023-03-11T21:40:48;43.94;40.62;49.52;;
46584;Laerm;32309;48.858;8.252;2023-03-11T21:42:49;45.38;40.03;53.41;;
46584;Laerm;32309;48.858;8.252;2023-03-11T21:44:50;44.04;39.92;50.70;;
46584;Laerm;32309;48.858;8.252;2023-03-11T21:46:50;44.29;40.13;62.63;;
46584;Laerm;32309;48.858;8.252;2023-03-11T21:48:51;43.27;40.62;52.98;;
46584;Laerm;32309;48.858;8.252;2023-03-11T21:50:52;44.29;40.33;54.71;;
46584;Laerm;32309;48.858;8.252;2023-03-11T21:52:52;48.28;40.13;59.14;;